Pass Christian, Mississippi
Current Conditions -  °F | °C
As of 9:53 AM on Friday 28 Nov 2014 (Local Time) from KGPT Reporting Station
Clear Clear  
Wind Chill: 44°   Ceiling: Unl
Heat Index: 48°   Visibility: 10mi
Dew Point: 31°   Wind: 9mph
Humidity: 52%   Direction: 70°ENE
Pressure: 30.45"   Gusts: NA
Location:  30.32°N, 89.22°W
Report Text: KGPT 281553Z AUTO 07008KT 10SM CLR 09/M01 A3045 RMK AO2 SLP310 T00891006 TSNO
Loading
Personal Weather Stations






























Interactive Weather Map New forecast layout! Learn more

10-Day Weather Forecast

Advertisements
Track Severe Weather on mobile